Ora Direzione Vento Velocita' Vento Media Vento Raffica Max. Temperatura Wind Chill Pioggia Pressione
04:48:09.051 °(NE)2.7 Kts2.8 Kts27.6 Kts2.9 °C1.84 °C0.0 mm926.2 Hpa
04:27:27.058 °(ENE)0.0 Kts0.6 Kts27.6 Kts3.0 °C14.98 °C0.0 mm926.6 Hpa
04:06:47.0169 °(S)0.4 Kts1.26 Kts27.6 Kts2.7 °C4.91 °C0.0 mm926.9 Hpa
03:46:09.0123 °(ESE)4.9 Kts3.23 Kts27.6 Kts2.7 °C0.27 °C0.0 mm926.4 Hpa
03:27:27.0141 °(SE)6.1 Kts2.56 Kts27.6 Kts2.7 °C-0.23 °C0.0 mm926.4 Hpa
03:06:49.0174 °(S)1.6 Kts5.86 Kts27.6 Kts2.4 °C2.32 °C0.0 mm924.8 Hpa
02:48:05.0100 °(E)0.0 Kts2.53 Kts27.6 Kts1.2 °C13.86 °C0.0 mm924.8 Hpa
02:27:22.088 °(E)4.8 Kts1.93 Kts27.6 Kts1.2 °C-1.37 °C0.0 mm924.8 Hpa
02:06:45.0198 °(SSW)3.8 Kts0.83 Kts27.6 Kts1.2 °C-0.94 °C0.0 mm924.8 Hpa
01:47:58.089 °(E)3.1 Kts5.0 Kts27.6 Kts1.3 °C-0.18 °C0.0 mm925.3 Hpa
01:27:16.0184 °(S)2.1 Kts3.0 Kts27.6 Kts2.0 °C1.35 °C0.0 mm925.7 Hpa
01:06:35.00 °(N)10.0 Kts9.93 Kts27.6 Kts2.0 °C-2.34 °C0.0 mm924.6 Hpa
00:48:00.0109 °(ESE)13.7 Kts9.6 Kts27.6 Kts1.7 °C-3.57 °C0.0 mm924.6 Hpa
00:27:19.075 °(ENE)6.5 Kts8.83 Kts27.6 Kts1.5 °C-1.78 °C0.0 mm924.1 Hpa
00:06:36.076 °(ENE)9.7 Kts10.96 Kts27.6 Kts1.2 °C-3.34 °C0.0 mm925.5 Hpa
23:47:59.056 °(NE)6.9 Kts6.36 Kts27.6 Kts1.5 °C-2.0 °C0.0 mm924.8 Hpa
23:27:18.0102 °(ESE)4.1 Kts3.3 Kts27.6 Kts2.2 °C0.11 °C0.0 mm926.0 Hpa
23:06:34.085 °(E)3.5 Kts2.5 Kts27.6 Kts2.2 °C0.52 °C0.0 mm925.3 Hpa
22:48:00.018 °(NNE)2.9 Kts2.43 Kts27.6 Kts2.2 °C0.95 °C0.0 mm926.9 Hpa
22:27:14.057 °(ENE)3.0 Kts3.16 Kts27.6 Kts2.7 °C1.4 °C0.0 mm924.1 Hpa